createdAt,value
2022-09-24T00:01:16.660Z,12.20
2022-09-24T00:03:50.152Z,12.19
2022-09-24T00:06:19.270Z,12.19
2022-09-24T00:08:47.551Z,12.20
2022-09-24T00:11:14.635Z,12.18
2022-09-24T00:13:41.763Z,12.16
2022-09-24T00:16:13.477Z,12.15
2022-09-24T00:18:40.962Z,12.15
2022-09-24T00:21:16.338Z,12.10
2022-09-24T00:23:43.446Z,12.07
2022-09-24T00:26:32.032Z,12.02
2022-09-24T00:28:59.328Z,11.99
2022-09-24T00:31:26.686Z,11.94
2022-09-24T00:33:54.372Z,11.88
2022-09-24T00:36:22.295Z,11.87
2022-09-24T00:38:54.195Z,11.85
2022-09-24T00:41:24.173Z,11.83
2022-09-24T00:43:51.546Z,11.84
2022-09-24T00:46:27.910Z,11.80
2022-09-24T00:48:58.743Z,11.80
2022-09-24T00:51:28.502Z,11.81
2022-09-24T00:53:59.993Z,11.80
2022-09-24T00:56:28.422Z,11.80
2022-09-24T00:58:57.217Z,11.82
2022-09-24T01:01:25.601Z,11.84
2022-09-24T01:03:55.471Z,11.83
2022-09-24T01:06:22.673Z,11.84
2022-09-24T01:08:49.512Z,11.83
2022-09-24T01:11:41.021Z,11.81
2022-09-24T01:14:39.224Z,11.79
2022-09-24T01:17:32.867Z,11.77
2022-09-24T01:20:26.812Z,11.78
2022-09-24T01:23:05.404Z,11.82
2022-09-24T01:26:02.923Z,11.84
2022-09-24T01:29:05.965Z,11.85
2022-09-24T01:31:44.556Z,11.88
2022-09-24T01:34:15.781Z,11.94
2022-09-24T01:36:45.350Z,11.98
2022-09-24T01:39:14.620Z,12.02
2022-09-24T01:41:43.159Z,12.04
2022-09-24T01:44:11.724Z,12.07
2022-09-24T01:46:40.241Z,12.09
2022-09-24T01:49:08.210Z,12.12
2022-09-24T01:51:44.056Z,12.12
2022-09-24T01:54:28.516Z,12.08
2022-09-24T01:57:13.298Z,12.09
2022-09-24T01:59:47.132Z,12.12
2022-09-24T02:02:30.494Z,12.14
2022-09-24T02:05:12.979Z,12.16
2022-09-24T02:07:47.047Z,12.21
2022-09-24T02:10:16.902Z,12.23
2022-09-24T02:12:47.149Z,12.26
2022-09-24T02:15:20.896Z,12.29
2022-09-24T02:17:53.572Z,12.33
2022-09-24T02:20:23.219Z,12.40
2022-09-24T02:22:51.714Z,12.42
2022-09-24T02:25:25.143Z,12.41
2022-09-24T02:27:51.814Z,12.40
2022-09-24T02:30:18.382Z,12.38
2022-09-24T02:32:45.074Z,12.38
2022-09-24T02:35:12.809Z,12.37
2022-09-24T02:37:42.414Z,12.35
2022-09-24T02:40:12.185Z,12.37
2022-09-24T02:42:41.102Z,12.36
2022-09-24T02:45:08.462Z,12.36
2022-09-24T02:47:35.019Z,12.34
2022-09-24T02:50:01.671Z,12.33
2022-09-24T02:52:28.220Z,12.33
2022-09-24T02:54:54.758Z,12.33
2022-09-24T02:57:21.245Z,12.33
2022-09-24T02:59:47.929Z,12.31
2022-09-24T03:02:15.392Z,12.30
2022-09-24T03:04:42.646Z,12.30
2022-09-24T03:07:10.291Z,12.33
2022-09-24T03:09:36.961Z,12.35
2022-09-24T03:12:05.224Z,12.36
2022-09-24T03:14:31.966Z,12.35
2022-09-24T03:16:58.690Z,12.34
2022-09-24T03:19:25.213Z,12.36
2022-09-24T03:21:51.741Z,12.37
2022-09-24T03:24:18.239Z,12.40
2022-09-24T03:26:45.354Z,12.40
2022-09-24T03:29:11.898Z,12.39
2022-09-24T03:31:38.501Z,12.38
2022-09-24T03:34:05.274Z,12.36
2022-09-24T03:36:31.869Z,12.36
2022-09-24T03:38:58.370Z,12.40
2022-09-24T03:41:27.508Z,12.42
2022-09-24T03:43:54.791Z,12.42
2022-09-24T03:46:22.109Z,12.42
2022-09-24T03:48:49.167Z,12.47
2022-09-24T03:51:20.297Z,12.48
2022-09-24T03:53:47.915Z,12.51
2022-09-24T03:56:15.632Z,12.53
2022-09-24T03:58:47.697Z,12.54
2022-09-24T04:01:14.519Z,12.56
2022-09-24T04:03:41.100Z,12.59
2022-09-24T04:06:07.915Z,12.59
2022-09-24T04:08:34.469Z,12.60
2022-09-24T04:11:01.094Z,12.60
2022-09-24T04:13:27.669Z,12.59
2022-09-24T04:15:55.124Z,12.59
2022-09-24T04:18:22.181Z,12.57
2022-09-24T04:20:48.837Z,12.56
2022-09-24T04:23:15.484Z,12.56
2022-09-24T04:25:42.371Z,12.55
2022-09-24T04:28:09.944Z,12.54
2022-09-24T04:30:38.159Z,12.51
2022-09-24T04:33:04.789Z,12.48
2022-09-24T04:35:36.006Z,12.49
2022-09-24T04:38:04.048Z,12.51
2022-09-24T04:40:31.434Z,12.47
2022-09-24T04:42:58.139Z,12.46
2022-09-24T04:45:25.115Z,12.45
2022-09-24T04:47:53.605Z,12.48
2022-09-24T04:50:20.660Z,12.54
2022-09-24T04:52:47.292Z,12.57
2022-09-24T04:55:14.188Z,12.59
2022-09-24T04:57:41.435Z,12.71
2022-09-24T05:00:15.353Z,13.21
2022-09-24T05:02:42.801Z,13.67
2022-09-24T05:05:11.001Z,14.00
2022-09-24T05:07:38.734Z,14.31
2022-09-24T05:10:06.761Z,14.50
2022-09-24T05:12:35.433Z,14.61
2022-09-24T05:15:02.590Z,14.79
2022-09-24T05:17:29.195Z,14.95
2022-09-24T05:19:57.893Z,15.11
2022-09-24T05:22:27.511Z,15.21
2022-09-24T05:24:54.528Z,15.18
2022-09-24T05:27:21.771Z,15.14
2022-09-24T05:29:48.286Z,15.21
2022-09-24T05:32:19.938Z,15.23
2022-09-24T05:34:46.769Z,15.27
2022-09-24T05:37:14.840Z,15.28
2022-09-24T05:39:41.814Z,15.24
2022-09-24T05:42:15.754Z,15.24
2022-09-24T05:44:48.628Z,15.30
2022-09-24T05:47:18.498Z,15.38
2022-09-24T05:49:45.214Z,15.43
2022-09-24T05:52:11.932Z,15.46
2022-09-24T05:54:38.467Z,15.54
2022-09-24T05:57:05.003Z,15.63
2022-09-24T05:59:32.291Z,15.65
2022-09-24T06:01:58.838Z,15.70
2022-09-24T06:04:25.490Z,15.75
2022-09-24T06:06:52.309Z,15.78
2022-09-24T06:09:18.825Z,15.71
2022-09-24T06:11:45.910Z,15.71
2022-09-24T06:14:13.314Z,15.73
2022-09-24T06:16:40.013Z,15.77
2022-09-24T06:19:06.701Z,15.80
2022-09-24T06:21:33.234Z,15.82
2022-09-24T06:23:59.779Z,15.81
2022-09-24T06:26:27.337Z,15.68
2022-09-24T06:28:54.379Z,15.51
2022-09-24T06:31:21.315Z,15.54
2022-09-24T06:33:48.154Z,15.63
2022-09-24T06:36:14.789Z,15.68
2022-09-24T06:38:41.933Z,15.69
2022-09-24T06:41:10.160Z,15.62
2022-09-24T06:43:37.497Z,15.55
2022-09-24T06:46:05.041Z,15.45
2022-09-24T06:48:32.209Z,15.36
2022-09-24T06:50:58.827Z,15.42
2022-09-24T06:53:26.063Z,15.47
2022-09-24T06:55:53.402Z,15.54
2022-09-24T06:58:21.037Z,15.48
2022-09-24T07:01:06.645Z,15.40
2022-09-24T07:03:35.005Z,15.45
2022-09-24T07:06:05.142Z,15.41
2022-09-24T07:08:32.108Z,15.40
2022-09-24T07:10:59.025Z,15.33
2022-09-24T07:13:25.691Z,15.19
2022-09-24T07:15:52.899Z,15.06
2022-09-24T07:18:20.514Z,14.98
2022-09-24T07:20:54.752Z,14.97
2022-09-24T07:23:21.889Z,15.01
2022-09-24T07:25:49.333Z,15.04
2022-09-24T07:28:16.921Z,15.09
2022-09-24T07:30:43.631Z,15.12
2022-09-24T07:33:10.214Z,15.15
2022-09-24T07:35:40.022Z,15.18
2022-09-24T07:38:12.086Z,15.19
2022-09-24T07:40:38.672Z,15.15
2022-09-24T07:43:06.981Z,15.24
2022-09-24T07:45:34.041Z,15.26
2022-09-24T07:48:02.760Z,15.26
2022-09-24T07:50:32.427Z,15.32
2022-09-24T07:52:59.132Z,15.49
2022-09-24T07:55:26.113Z,15.67
2022-09-24T07:57:54.910Z,15.83
2022-09-24T08:00:22.928Z,15.97
2022-09-24T08:02:50.162Z,16.03
2022-09-24T08:05:18.170Z,16.06
2022-09-24T08:07:55.751Z,16.00
2022-09-24T08:10:23.147Z,16.00
2022-09-24T08:12:50.457Z,15.98
2022-09-24T08:15:17.144Z,15.98
2022-09-24T08:17:43.765Z,15.98
2022-09-24T08:20:10.764Z,15.96
2022-09-24T08:22:37.346Z,15.93
2022-09-24T08:25:04.815Z,15.93
2022-09-24T08:27:32.945Z,15.93
2022-09-24T08:30:00.710Z,15.96
2022-09-24T08:32:28.993Z,16.01
2022-09-24T08:34:55.560Z,16.06
2022-09-24T08:37:22.510Z,16.11
2022-09-24T08:39:49.113Z,16.11
2022-09-24T08:42:31.511Z,16.08
2022-09-24T08:45:17.344Z,16.12
2022-09-24T08:47:55.107Z,16.04
2022-09-24T08:50:29.278Z,15.99
2022-09-24T08:53:06.595Z,15.95
2022-09-24T08:55:49.941Z,15.99
2022-09-24T08:58:55.192Z,16.02
2022-09-24T09:01:38.906Z,16.06
2022-09-24T09:04:14.274Z,16.14
2022-09-24T09:07:06.409Z,16.19
2022-09-24T09:10:11.104Z,16.24
2022-09-24T09:12:42.571Z,16.36
2022-09-24T09:15:18.071Z,16.42
2022-09-24T09:18:05.095Z,16.47
2022-09-24T09:20:41.247Z,16.54
2022-09-24T09:23:13.941Z,16.60
2022-09-24T09:25:47.320Z,16.68
2022-09-24T09:28:15.606Z,16.68
2022-09-24T09:31:00.380Z,16.70
2022-09-24T09:33:47.928Z,16.72
2022-09-24T09:36:37.164Z,16.84
2022-09-24T09:39:59.109Z,16.94
2022-09-24T09:42:36.153Z,17.03
2022-09-24T09:45:07.537Z,17.16
2022-09-24T09:47:45.948Z,17.26
2022-09-24T09:50:27.540Z,17.41
2022-09-24T09:52:55.582Z,17.57
2022-09-24T09:55:26.401Z,17.70
2022-09-24T09:57:54.416Z,17.78
2022-09-24T10:00:27.603Z,17.83
2022-09-24T10:02:54.987Z,17.85
2022-09-24T10:05:27.361Z,17.88
2022-09-24T10:07:58.270Z,17.98
2022-09-24T10:10:28.952Z,18.14
2022-09-24T10:13:09.051Z,18.16
2022-09-24T10:15:49.085Z,18.22
2022-09-24T10:18:16.594Z,18.26
2022-09-24T10:20:48.224Z,18.32
2022-09-24T10:23:22.967Z,18.45
2022-09-24T10:25:59.881Z,18.51
2022-09-24T10:28:46.426Z,18.60
2022-09-24T10:31:29.603Z,18.64
2022-09-24T10:33:59.116Z,18.77
2022-09-24T10:36:32.649Z,18.87
2022-09-24T10:39:08.397Z,18.91
2022-09-24T10:41:36.006Z,18.90
2022-09-24T10:44:11.700Z,18.82
2022-09-24T10:46:56.940Z,18.80
2022-09-24T10:49:27.402Z,18.76
2022-09-24T10:52:10.274Z,18.77
2022-09-24T10:54:49.915Z,18.90
2022-09-24T10:57:39.713Z,18.97
2022-09-24T11:00:18.389Z,18.98
2022-09-24T11:02:58.041Z,19.01
2022-09-24T11:05:49.861Z,19.08
2022-09-24T11:08:46.943Z,19.07
2022-09-24T11:11:37.640Z,19.09
2022-09-24T11:14:23.764Z,19.12
2022-09-24T11:17:05.038Z,19.15
2022-09-24T11:19:46.759Z,19.12
2022-09-24T11:22:17.505Z,19.12
2022-09-24T11:24:53.369Z,19.07
2022-09-24T11:27:50.855Z,19.04
2022-09-24T11:30:24.915Z,19.00
2022-09-24T11:33:29.803Z,18.82
2022-09-24T11:36:13.693Z,18.74
2022-09-24T11:39:08.227Z,18.70
2022-09-24T11:41:37.423Z,18.70
2022-09-24T11:44:11.289Z,18.65
2022-09-24T11:46:48.874Z,18.68
2022-09-24T11:49:24.490Z,18.69
2022-09-24T11:52:11.512Z,18.80
2022-09-24T11:54:46.675Z,18.83
2022-09-24T11:57:27.948Z,18.80
2022-09-24T11:59:54.543Z,18.83
2022-09-24T12:02:30.372Z,18.89
2022-09-24T12:05:03.150Z,18.93
2022-09-24T12:07:40.385Z,19.03
2022-09-24T12:10:32.934Z,19.21
2022-09-24T12:13:14.513Z,19.35
2022-09-24T12:15:50.606Z,19.47
2022-09-24T12:18:54.185Z,19.57
2022-09-24T12:21:28.243Z,19.64
2022-09-24T12:24:05.104Z,19.62
2022-09-24T12:26:37.911Z,19.69
2022-09-24T12:29:25.926Z,19.71
2022-09-24T12:32:22.519Z,19.71
2022-09-24T12:34:59.918Z,19.71
2022-09-24T12:37:34.271Z,19.64
2022-09-24T12:40:53.309Z,19.65
2022-09-24T12:43:28.165Z,19.69
2022-09-24T12:46:04.742Z,19.67
2022-09-24T12:48:36.886Z,19.66
2022-09-24T12:51:04.737Z,19.57
2022-09-24T12:53:41.909Z,19.49
2022-09-24T12:56:10.363Z,19.41
2022-09-24T12:58:44.928Z,19.40
2022-09-24T13:01:26.871Z,19.42
2022-09-24T13:04:15.096Z,19.57
2022-09-24T13:06:43.868Z,19.78
2022-09-24T13:09:35.478Z,19.90
2022-09-24T13:12:18.088Z,20.09
2022-09-24T13:15:08.050Z,20.18
2022-09-24T13:17:38.371Z,20.22
2022-09-24T13:20:28.415Z,20.26
2022-09-24T13:23:31.754Z,20.33
2022-09-24T13:26:02.991Z,20.30
2022-09-24T13:28:38.701Z,20.14
2022-09-24T13:31:21.352Z,19.99
2022-09-24T13:33:51.513Z,19.67
2022-09-24T13:36:35.602Z,19.55
2022-09-24T13:39:21.333Z,19.43
2022-09-24T13:42:06.416Z,19.35
2022-09-24T13:44:40.236Z,19.20
2022-09-24T13:47:27.596Z,19.04
2022-09-24T13:50:03.739Z,18.91
2022-09-24T13:52:38.503Z,18.83
2022-09-24T13:55:17.713Z,18.80
2022-09-24T13:57:46.290Z,18.77
2022-09-24T14:00:16.221Z,18.74
2022-09-24T14:02:53.694Z,18.74
2022-09-24T14:05:22.024Z,18.89
2022-09-24T14:08:06.705Z,19.01
2022-09-24T14:10:33.752Z,19.15
2022-09-24T14:13:22.991Z,19.19
2022-09-24T14:15:55.652Z,19.22
2022-09-24T14:18:23.635Z,19.16
2022-09-24T14:21:12.816Z,19.02
2022-09-24T14:23:48.234Z,19.01
2022-09-24T14:26:32.944Z,18.97
2022-09-24T14:29:03.619Z,18.92
2022-09-24T14:31:30.453Z,18.87
2022-09-24T14:34:01.688Z,18.99
2022-09-24T14:36:29.345Z,19.12
2022-09-24T14:39:02.748Z,19.16
2022-09-24T14:41:31.998Z,19.16
2022-09-24T14:44:03.803Z,19.10
2022-09-24T14:46:48.710Z,19.01
2022-09-24T14:49:27.265Z,19.02
2022-09-24T14:52:01.862Z,19.15
2022-09-24T14:54:35.468Z,19.23
2022-09-24T14:57:16.953Z,19.18
2022-09-24T14:59:44.957Z,19.20
2022-09-24T15:02:17.254Z,19.14
2022-09-24T15:04:50.104Z,19.06
2022-09-24T15:07:24.012Z,19.04
2022-09-24T15:09:53.240Z,19.05
2022-09-24T15:12:30.951Z,18.99
2022-09-24T15:14:57.517Z,19.00
2022-09-24T15:17:29.125Z,19.00
2022-09-24T15:19:57.996Z,19.03
2022-09-24T15:22:29.385Z,19.00
2022-09-24T15:25:01.646Z,18.93
2022-09-24T15:27:31.328Z,18.92
2022-09-24T15:29:59.992Z,18.98
2022-09-24T15:32:32.492Z,19.03
2022-09-24T15:34:59.734Z,19.04
2022-09-24T15:37:28.848Z,19.06
2022-09-24T15:40:05.243Z,19.01
2022-09-24T15:42:31.898Z,18.90
2022-09-24T15:44:58.960Z,18.79
2022-09-24T15:47:25.612Z,18.74
2022-09-24T15:49:52.211Z,18.75
2022-09-24T15:52:27.075Z,18.87
2022-09-24T15:54:55.833Z,19.17
2022-09-24T15:57:26.553Z,19.41
2022-09-24T15:59:53.661Z,19.40
2022-09-24T16:02:24.872Z,19.27
2022-09-24T16:04:52.082Z,19.07
2022-09-24T16:07:19.028Z,18.97
2022-09-24T16:09:45.707Z,18.89
2022-09-24T16:12:15.233Z,18.83
2022-09-24T16:14:41.832Z,18.80
2022-09-24T16:17:08.372Z,18.73
2022-09-24T16:19:35.067Z,18.62
2022-09-24T16:22:01.669Z,18.55
2022-09-24T16:24:32.258Z,18.50
2022-09-24T16:26:59.511Z,18.45
2022-09-24T16:29:26.137Z,18.37
2022-09-24T16:31:52.663Z,18.31
2022-09-24T16:34:19.232Z,18.23
2022-09-24T16:36:45.789Z,18.17
2022-09-24T16:39:12.373Z,18.12
2022-09-24T16:41:39.213Z,18.08
2022-09-24T16:44:06.877Z,18.03
2022-09-24T16:46:33.436Z,17.95
2022-09-24T16:49:00.101Z,17.91
2022-09-24T16:51:26.695Z,17.89
2022-09-24T16:53:56.799Z,17.87
2022-09-24T16:56:24.008Z,17.82
2022-09-24T16:58:51.108Z,17.79
2022-09-24T17:01:20.077Z,17.75
2022-09-24T17:03:57.925Z,17.67
2022-09-24T17:06:27.266Z,17.62
2022-09-24T17:09:13.039Z,17.57
2022-09-24T17:11:40.553Z,17.49
2022-09-24T17:14:13.395Z,17.44
2022-09-24T17:16:39.992Z,17.40
2022-09-24T17:19:08.171Z,17.35
2022-09-24T17:21:38.932Z,17.31
2022-09-24T17:24:06.070Z,17.27
2022-09-24T17:26:32.997Z,17.24
2022-09-24T17:28:59.522Z,17.22
2022-09-24T17:31:26.950Z,17.19
2022-09-24T17:33:58.460Z,17.13
2022-09-24T17:36:26.823Z,17.09
2022-09-24T17:38:53.776Z,17.08
2022-09-24T17:41:20.407Z,17.06
2022-09-24T17:43:48.088Z,17.03
2022-09-24T17:46:17.940Z,17.01
2022-09-24T17:48:46.374Z,16.99
2022-09-24T17:51:16.200Z,16.97
2022-09-24T17:53:43.309Z,16.95
2022-09-24T17:56:12.498Z,16.93
2022-09-24T17:58:44.133Z,16.91
2022-09-24T18:01:14.329Z,16.89
2022-09-24T18:03:41.412Z,16.88
2022-09-24T18:06:11.066Z,16.86
2022-09-24T18:08:42.461Z,16.85
2022-09-24T18:11:10.555Z,16.83
2022-09-24T18:13:37.380Z,16.79
2022-09-24T18:16:09.794Z,16.78
2022-09-24T18:18:36.784Z,16.77
2022-09-24T18:21:05.833Z,16.76
2022-09-24T18:23:35.033Z,16.75
2022-09-24T18:26:11.922Z,16.71
2022-09-24T18:28:58.737Z,16.69
2022-09-24T18:31:28.927Z,16.73
2022-09-24T18:33:58.308Z,16.75
2022-09-24T18:36:28.240Z,16.75
2022-09-24T18:38:56.017Z,16.77
2022-09-24T18:41:24.953Z,16.77
2022-09-24T18:43:53.654Z,16.77
2022-09-24T18:46:22.070Z,16.75
2022-09-24T18:48:50.845Z,16.74
2022-09-24T18:51:23.772Z,16.71
2022-09-24T18:53:55.675Z,16.70
2022-09-24T18:56:24.168Z,16.68
2022-09-24T18:59:09.451Z,16.64
2022-09-24T19:01:37.502Z,16.62
2022-09-24T19:04:05.213Z,16.59
2022-09-24T19:06:34.203Z,16.56
2022-09-24T19:09:00.858Z,16.55
2022-09-24T19:11:28.124Z,16.53
2022-09-24T19:13:54.661Z,16.52
2022-09-24T19:16:23.783Z,16.55
2022-09-24T19:18:51.922Z,16.54
2022-09-24T19:21:19.068Z,16.55
2022-09-24T19:23:50.461Z,16.52
2022-09-24T19:26:22.568Z,16.51
2022-09-24T19:28:53.150Z,16.52
2022-09-24T19:31:22.896Z,16.53
2022-09-24T19:33:50.717Z,16.56
2022-09-24T19:36:17.675Z,16.56
2022-09-24T19:38:44.800Z,16.57
2022-09-24T19:41:14.994Z,16.56
2022-09-24T19:43:43.572Z,16.56
2022-09-24T19:46:12.848Z,16.58
2022-09-24T19:48:41.409Z,16.58
2022-09-24T19:51:12.604Z,16.58
2022-09-24T19:53:39.279Z,16.56
2022-09-24T19:56:07.844Z,16.57
2022-09-24T19:58:34.893Z,16.55
2022-09-24T20:01:06.940Z,16.51
2022-09-24T20:03:36.614Z,16.40
2022-09-24T20:06:11.787Z,16.43
2022-09-24T20:08:39.055Z,16.43
2022-09-24T20:11:07.589Z,16.42
2022-09-24T20:13:34.470Z,16.38
2022-09-24T20:16:03.550Z,16.36
2022-09-24T20:18:31.274Z,16.31
2022-09-24T20:21:05.468Z,16.28
2022-09-24T20:23:32.162Z,16.28
2022-09-24T20:26:17.285Z,16.26
2022-09-24T20:28:44.427Z,16.24
2022-09-24T20:31:15.140Z,16.20
2022-09-24T20:33:43.168Z,16.18
2022-09-24T20:36:16.544Z,16.17
2022-09-24T20:38:46.035Z,16.14
2022-09-24T20:41:15.221Z,16.14
2022-09-24T20:43:41.789Z,16.11
2022-09-24T20:46:14.284Z,16.12
2022-09-24T20:48:40.827Z,16.11
2022-09-24T20:51:12.094Z,16.12
2022-09-24T20:53:39.314Z,16.10
2022-09-24T20:56:06.460Z,16.09
2022-09-24T20:58:33.868Z,16.07
2022-09-24T21:01:01.074Z,16.05
2022-09-24T21:03:43.384Z,16.02
2022-09-24T21:06:12.740Z,15.99
2022-09-24T21:08:41.764Z,15.99
2022-09-24T21:11:13.609Z,15.94
2022-09-24T21:13:42.551Z,15.90
2022-09-24T21:16:10.256Z,15.85
2022-09-24T21:18:40.673Z,15.80
2022-09-24T21:21:15.472Z,15.77
2022-09-24T21:23:47.385Z,15.73
2022-09-24T21:26:15.507Z,15.69
2022-09-24T21:28:43.316Z,15.67
2022-09-24T21:31:10.210Z,15.66
2022-09-24T21:33:36.976Z,15.66
2022-09-24T21:36:05.702Z,15.68
2022-09-24T21:38:33.124Z,15.69
2022-09-24T21:41:01.387Z,15.66
2022-09-24T21:43:33.801Z,15.66
2022-09-24T21:46:05.025Z,15.62
2022-09-24T21:48:32.893Z,15.58
2022-09-24T21:51:07.141Z,15.56
2022-09-24T21:53:34.293Z,15.54
2022-09-24T21:56:02.272Z,15.52
2022-09-24T21:58:29.859Z,15.49
2022-09-24T22:01:00.921Z,15.45
2022-09-24T22:03:30.431Z,15.40
2022-09-24T22:05:59.329Z,15.39
2022-09-24T22:08:29.138Z,15.36
2022-09-24T22:11:07.748Z,15.29
2022-09-24T22:13:36.984Z,15.29
2022-09-24T22:16:05.646Z,15.26
2022-09-24T22:18:33.400Z,15.25
2022-09-24T22:21:04.639Z,15.23
2022-09-24T22:23:31.157Z,15.20
2022-09-24T22:25:59.446Z,15.19
2022-09-24T22:28:27.629Z,15.15
2022-09-24T22:30:59.424Z,15.11
2022-09-24T22:33:48.442Z,15.09
2022-09-24T22:36:15.751Z,15.05
2022-09-24T22:38:42.935Z,15.04
2022-09-24T22:41:11.057Z,15.03
2022-09-24T22:43:39.308Z,15.03
2022-09-24T22:46:08.932Z,15.00
2022-09-24T22:48:35.973Z,15.00
2022-09-24T22:51:04.245Z,15.00
2022-09-24T22:53:34.830Z,14.99
2022-09-24T22:56:10.334Z,14.99
2022-09-24T22:58:38.402Z,14.99
2022-09-24T23:01:09.643Z,14.96
2022-09-24T23:03:37.507Z,14.96
2022-09-24T23:06:08.306Z,14.93
2022-09-24T23:08:36.443Z,14.91
2022-09-24T23:11:07.166Z,14.90
2022-09-24T23:13:34.063Z,14.89
2022-09-24T23:16:10.257Z,14.88
2022-09-24T23:18:37.916Z,14.85
2022-09-24T23:21:10.057Z,14.83
2022-09-24T23:23:37.164Z,14.84
2022-09-24T23:26:16.260Z,14.83
2022-09-24T23:28:44.677Z,14.82
2022-09-24T23:31:14.256Z,14.81
2022-09-24T23:33:42.266Z,14.86
2022-09-24T23:36:11.272Z,14.87
2022-09-24T23:38:38.503Z,14.88
2022-09-24T23:41:06.461Z,14.88
2022-09-24T23:43:33.732Z,14.89
2022-09-24T23:46:01.304Z,14.88
2022-09-24T23:48:28.704Z,14.87
2022-09-24T23:50:55.775Z,14.82
2022-09-24T23:53:22.308Z,14.81
2022-09-24T23:55:49.858Z,14.80
2022-09-24T23:58:20.064Z,14.78
